createdAt,value
2017-11-12T00:01:59.607Z,98310
2017-11-12T00:04:06.167Z,98314
2017-11-12T00:06:13.863Z,98312
2017-11-12T00:08:19.552Z,98317
2017-11-12T00:10:25.659Z,98307
2017-11-12T00:12:32.052Z,98319
2017-11-12T00:14:38.277Z,98315
2017-11-12T00:16:47.042Z,98307
2017-11-12T00:18:53.456Z,98316
2017-11-12T00:21:01.519Z,98298
2017-11-12T00:23:07.657Z,98291
2017-11-12T00:25:14.796Z,98284
2017-11-12T00:27:20.697Z,98288
2017-11-12T00:29:26.972Z,98298
2017-11-12T00:31:32.553Z,98291
2017-11-12T00:33:38.132Z,98287
2017-11-12T00:35:44.063Z,98285
2017-11-12T00:37:50.306Z,98282
2017-11-12T00:39:58.055Z,98278
2017-11-12T00:42:05.741Z,98280
2017-11-12T00:44:11.295Z,98278
2017-11-12T00:46:16.699Z,98276
2017-11-12T00:48:22.592Z,98281
2017-11-12T00:50:28.580Z,98287
2017-11-12T00:52:34.472Z,98286
2017-11-12T00:54:41.002Z,98286
2017-11-12T00:56:47.219Z,98293
2017-11-12T00:58:54.693Z,98300
2017-11-12T01:01:02.131Z,98296
2017-11-12T01:03:08.491Z,98297
2017-11-12T01:05:14.499Z,98301
2017-11-12T01:07:21.226Z,98286
2017-11-12T01:09:28.735Z,98287
2017-11-12T01:11:35.582Z,98292
2017-11-12T01:13:45.777Z,98288
2017-11-12T01:15:52.329Z,98288
2017-11-12T01:18:01.113Z,98304
2017-11-12T01:20:09.179Z,98287
2017-11-12T01:22:16.322Z,98279
2017-11-12T01:24:24.695Z,98277
2017-11-12T01:26:32.658Z,98275
2017-11-12T01:28:38.180Z,98285
2017-11-12T01:30:45.768Z,98272
2017-11-12T01:32:52.592Z,98272
2017-11-12T01:35:02.964Z,98274
2017-11-12T01:37:08.701Z,98284
2017-11-12T01:39:18.102Z,98279
2017-11-12T01:41:23.727Z,98284
2017-11-12T01:43:39.608Z,98280
2017-11-12T01:45:50.538Z,98275
2017-11-12T01:47:59.155Z,98284
2017-11-12T01:50:10.079Z,98270
2017-11-12T01:52:23.304Z,98271
2017-11-12T01:54:31.928Z,98256
2017-11-12T01:56:39.039Z,98267
2017-11-12T01:58:45.963Z,98264
2017-11-12T02:00:54.051Z,98275
2017-11-12T02:03:01.789Z,98260
2017-11-12T02:05:14.363Z,98266
2017-11-12T02:07:20.119Z,98262
2017-11-12T02:09:25.788Z,98257
2017-11-12T02:11:34.309Z,98255
2017-11-12T02:13:40.260Z,98250
2017-11-12T02:15:49.004Z,98264
2017-11-12T02:17:55.131Z,98258
2017-11-12T02:20:05.865Z,98256
2017-11-12T02:22:14.880Z,98256
2017-11-12T02:24:22.767Z,98253
2017-11-12T02:26:30.826Z,98260
2017-11-12T02:28:41.758Z,98250
2017-11-12T02:30:48.241Z,98261
2017-11-12T02:32:55.270Z,98255
2017-11-12T02:35:03.589Z,98249
2017-11-12T02:37:14.283Z,98246
2017-11-12T02:39:20.833Z,98243
2017-11-12T02:41:26.935Z,98241
2017-11-12T02:43:33.236Z,98245
2017-11-12T02:45:44.533Z,98247
2017-11-12T02:47:50.540Z,98250
2017-11-12T02:50:00.871Z,98246
2017-11-12T02:52:09.970Z,98249
2017-11-12T02:54:16.017Z,98237
2017-11-12T02:56:21.712Z,98242
2017-11-12T02:58:30.604Z,98246
2017-11-12T03:00:37.208Z,98249
2017-11-12T03:02:44.281Z,98252
2017-11-12T03:04:52.984Z,98245
2017-11-12T03:07:02.353Z,98250
2017-11-12T03:09:38.949Z,98241
2017-11-12T03:11:50.605Z,98244
2017-11-12T03:13:58.265Z,98243
2017-11-12T03:16:12.683Z,98250
2017-11-12T03:18:18.177Z,98238
2017-11-12T03:20:28.545Z,98245
2017-11-12T03:22:34.101Z,98240
2017-11-12T03:24:39.564Z,98245
2017-11-12T03:26:46.519Z,98239
2017-11-12T03:28:52.625Z,98240
2017-11-12T03:31:02.254Z,98237
2017-11-12T03:33:08.116Z,98240
2017-11-12T03:35:13.876Z,98239
2017-11-12T03:37:19.470Z,98242
2017-11-12T03:39:25.025Z,98241
2017-11-12T03:41:31.708Z,98244
2017-11-12T03:43:37.297Z,98241
2017-11-12T03:45:43.842Z,98241
2017-11-12T03:47:50.469Z,98232
2017-11-12T03:49:57.062Z,98226
2017-11-12T03:52:05.857Z,98228
2017-11-12T03:54:12.645Z,98223
2017-11-12T03:56:18.102Z,98222
2017-11-12T03:58:23.731Z,98216
2017-11-12T04:00:29.481Z,98208
2017-11-12T04:02:34.919Z,98208
2017-11-12T04:04:40.828Z,98210
2017-11-12T04:06:47.814Z,98200
2017-11-12T04:08:53.823Z,98208
2017-11-12T04:13:23.656Z,98202
2017-11-12T04:15:33.230Z,98198
2017-11-12T04:20:06.315Z,98198
2017-11-12T04:22:13.559Z,98205
2017-11-12T04:24:19.239Z,98202
2017-11-12T04:26:24.802Z,98191
2017-11-12T04:28:30.671Z,98189
2017-11-12T04:30:36.171Z,98189
2017-11-12T04:32:43.505Z,98183
2017-11-12T04:34:50.011Z,98186
2017-11-12T04:36:57.681Z,98179
2017-11-12T04:39:04.834Z,98174
2017-11-12T04:41:10.366Z,98168
2017-11-12T04:43:17.669Z,98160
2017-11-12T04:45:23.693Z,98159
2017-11-12T04:47:29.776Z,98169
2017-11-12T04:49:36.507Z,98166
2017-11-12T04:51:42.108Z,98163
2017-11-12T04:53:47.839Z,98162
2017-11-12T04:55:55.043Z,98162
2017-11-12T04:58:04.073Z,98163
2017-11-12T05:00:10.677Z,98162
2017-11-12T05:02:16.695Z,98164
2017-11-12T05:04:23.321Z,98163
2017-11-12T05:06:32.013Z,98162
2017-11-12T05:08:37.646Z,98157
2017-11-12T05:10:43.318Z,98155
2017-11-12T05:12:50.222Z,98150
2017-11-12T05:14:59.780Z,98154
2017-11-12T05:17:07.313Z,98147
2017-11-12T05:19:15.569Z,98150
2017-11-12T05:21:21.470Z,98145
2017-11-12T05:23:27.420Z,98148
2017-11-12T05:26:06.859Z,98141
2017-11-12T05:28:12.332Z,98145
2017-11-12T05:30:20.325Z,98141
2017-11-12T05:32:27.203Z,98134
2017-11-12T05:34:33.028Z,98128
2017-11-12T05:36:38.752Z,98132
2017-11-12T05:38:46.314Z,98125
2017-11-12T05:40:54.071Z,98128
2017-11-12T05:43:04.596Z,98129
2017-11-12T05:45:10.226Z,98124
2017-11-12T05:47:18.835Z,98116
2017-11-12T05:49:24.887Z,98124
2017-11-12T05:51:34.017Z,98118
2017-11-12T05:53:39.340Z,98119
2017-11-12T05:55:45.183Z,98118
2017-11-12T05:57:51.497Z,98114
2017-11-12T05:59:59.914Z,98118
2017-11-12T06:02:09.735Z,98115
2017-11-12T06:04:16.269Z,98116
2017-11-12T06:06:26.276Z,98108
2017-11-12T06:08:33.442Z,98110
2017-11-12T06:10:45.886Z,98110
2017-11-12T06:12:52.503Z,98105
2017-11-12T06:15:02.921Z,98110
2017-11-12T06:17:18.907Z,98103
2017-11-12T06:19:26.988Z,98102
2017-11-12T06:21:35.321Z,98111
2017-11-12T06:23:42.666Z,98116
2017-11-12T06:25:56.239Z,98113
2017-11-12T06:28:07.177Z,98110
2017-11-12T06:30:16.027Z,98109
2017-11-12T06:32:25.854Z,98099
2017-11-12T06:35:01.543Z,98101
2017-11-12T06:37:10.133Z,98092
2017-11-12T06:39:16.821Z,98091
2017-11-12T06:41:23.231Z,98081
2017-11-12T06:43:29.730Z,98072
2017-11-12T06:45:36.021Z,98072
2017-11-12T06:47:44.560Z,98071
2017-11-12T06:49:57.151Z,98060
2017-11-12T06:52:08.744Z,98055
2017-11-12T06:54:20.543Z,98057
2017-11-12T06:56:38.773Z,98055
2017-11-12T06:58:45.436Z,98047
2017-11-12T07:00:53.129Z,98046
2017-11-12T07:03:00.372Z,98044
2017-11-12T07:05:07.568Z,98043
2017-11-12T07:07:15.470Z,98056
2017-11-12T07:09:20.957Z,98042
2017-11-12T07:11:29.306Z,98035
2017-11-12T07:13:34.802Z,98032
2017-11-12T07:15:40.554Z,98030
2017-11-12T07:17:47.161Z,98042
2017-11-12T07:19:55.241Z,98041
2017-11-12T07:22:08.200Z,98036
2017-11-12T07:24:14.972Z,98039
2017-11-12T07:26:32.207Z,98039
2017-11-12T07:28:38.678Z,98031
2017-11-12T07:30:44.454Z,98028
2017-11-12T07:32:55.647Z,98014
2017-11-12T07:35:04.580Z,98009
2017-11-12T07:37:10.491Z,98003
2017-11-12T07:39:20.710Z,98000
2017-11-12T07:41:27.991Z,97996
2017-11-12T07:43:36.752Z,97996
2017-11-12T07:45:42.389Z,97990
2017-11-12T07:47:48.794Z,97989
2017-11-12T07:49:57.346Z,97988
2017-11-12T07:52:08.375Z,97974
2017-11-12T07:54:13.868Z,97969
2017-11-12T07:56:20.659Z,97961
2017-11-12T07:58:27.050Z,97956
2017-11-12T08:00:32.585Z,97949
2017-11-12T08:02:38.232Z,97944
2017-11-12T08:04:43.986Z,97933
2017-11-12T08:06:50.689Z,97936
2017-11-12T08:08:59.061Z,97927
2017-11-12T08:11:08.578Z,97920
2017-11-12T08:13:15.581Z,97922
2017-11-12T08:15:23.432Z,97912
2017-11-12T08:17:32.846Z,97908
2017-11-12T08:21:03.363Z,97906
2017-11-12T08:23:15.488Z,97900
2017-11-12T08:27:35.080Z,97893
2017-11-12T08:29:46.972Z,97893
2017-11-12T08:31:55.723Z,97887
2017-11-12T08:34:05.151Z,97889
2017-11-12T08:36:13.686Z,97885
2017-11-12T08:38:21.087Z,97881
2017-11-12T08:40:29.311Z,97887
2017-11-12T08:45:10.955Z,97866
2017-11-12T08:47:29.573Z,97870
2017-11-12T08:52:09.045Z,97855
2017-11-12T08:54:21.407Z,97857
2017-11-12T08:56:42.807Z,97857
2017-11-12T08:59:08.331Z,97856
2017-11-12T09:01:19.293Z,97846
2017-11-12T09:03:33.233Z,97847
2017-11-12T09:05:45.894Z,97845
2017-11-12T09:07:54.296Z,97846
2017-11-12T09:10:05.506Z,97848
2017-11-12T09:12:29.852Z,97852
2017-11-12T09:17:08.627Z,97846
2017-11-12T09:19:15.338Z,97843
2017-11-12T09:21:22.241Z,97834
2017-11-12T09:23:30.949Z,97837
2017-11-12T09:25:40.653Z,97834
2017-11-12T09:27:52.116Z,97827
2017-11-12T09:30:01.936Z,97826
2017-11-12T09:32:14.060Z,97828
2017-11-12T09:34:25.774Z,97821
2017-11-12T09:36:33.333Z,97818
2017-11-12T09:38:40.456Z,97815
2017-11-12T09:43:34.823Z,97807
2017-11-12T09:45:56.613Z,97804
2017-11-12T09:50:16.035Z,97803
2017-11-12T09:52:29.535Z,97797
2017-11-12T09:54:38.221Z,97791
2017-11-12T09:56:45.379Z,97793
2017-11-12T09:58:54.193Z,97787
2017-11-12T10:01:06.564Z,97782
2017-11-12T10:03:14.196Z,97781
2017-11-12T10:05:23.207Z,97779
2017-11-12T10:07:33.091Z,97780
2017-11-12T10:09:40.811Z,97779
2017-11-12T10:11:53.413Z,97782
2017-11-12T10:19:46.240Z,97775
2017-11-12T10:21:52.372Z,97747
2017-11-12T10:24:00.488Z,97742
2017-11-12T10:26:06.533Z,97749
2017-11-12T10:28:17.225Z,97748
2017-11-12T10:30:30.086Z,97747
2017-11-12T10:32:37.437Z,97748
2017-11-12T10:36:55.840Z,97740
2017-11-12T10:39:09.826Z,97738
2017-11-12T10:41:29.691Z,97732
2017-11-12T10:43:52.532Z,97733
2017-11-12T10:46:21.495Z,97745
2017-11-12T10:48:38.217Z,97744
2017-11-12T10:51:05.906Z,97744
2017-11-12T10:53:23.976Z,97735
2017-11-12T10:55:34.920Z,97715
2017-11-12T10:57:49.004Z,97720
2017-11-12T11:02:16.904Z,97708
2017-11-12T11:04:56.291Z,97697
2017-11-12T11:07:17.481Z,97690
2017-11-12T11:09:23.606Z,97696
2017-11-12T11:11:29.904Z,97689
2017-11-12T11:13:35.615Z,97692
2017-11-12T11:15:41.332Z,97686
2017-11-12T11:17:48.229Z,97683
2017-11-12T11:19:54.851Z,97688
2017-11-12T11:22:04.486Z,97684
2017-11-12T11:24:12.118Z,97681
2017-11-12T11:26:18.488Z,97667
2017-11-12T11:28:25.566Z,97659
2017-11-12T11:30:33.213Z,97639
2017-11-12T11:32:39.046Z,97634
2017-11-12T11:34:44.870Z,97611
2017-11-12T11:36:51.237Z,97604
2017-11-12T11:38:58.145Z,97585
2017-11-12T11:41:06.316Z,97575
2017-11-12T11:43:12.253Z,97553
2017-11-12T11:45:18.288Z,97536
2017-11-12T11:47:24.918Z,97520
2017-11-12T11:49:30.872Z,97499
2017-11-12T11:51:36.720Z,97490
2017-11-12T11:53:42.567Z,97489
2017-11-12T11:55:49.917Z,97495
2017-11-12T11:57:57.418Z,97487
2017-11-12T12:00:09.824Z,97496
2017-11-12T12:02:16.933Z,97500
2017-11-12T12:04:22.788Z,97505
2017-11-12T12:06:28.479Z,97521
2017-11-12T12:08:41.002Z,97523
2017-11-12T12:11:08.646Z,97524
2017-11-12T12:13:15.227Z,97534
2017-11-12T12:15:26.956Z,97538
2017-11-12T12:17:53.015Z,97512
2017-11-12T12:20:10.487Z,97503
2017-11-12T12:22:24.204Z,97496
2017-11-12T12:24:33.712Z,97487
2017-11-12T12:26:45.107Z,97471
2017-11-12T12:28:52.013Z,97467
2017-11-12T12:31:01.601Z,97468
2017-11-12T12:33:10.019Z,97469
2017-11-12T12:35:22.849Z,97462
2017-11-12T12:39:46.779Z,97463
2017-11-12T12:42:00.347Z,97468
2017-11-12T12:44:07.242Z,97476
2017-11-12T12:46:14.701Z,97488
2017-11-12T12:48:23.339Z,97482
2017-11-12T12:50:32.181Z,97486
2017-11-12T12:52:38.460Z,97484
2017-11-12T12:54:46.040Z,97471
2017-11-12T12:57:09.746Z,97466
2017-11-12T12:59:16.475Z,97455
2017-11-12T13:01:32.950Z,97447
2017-11-12T13:08:49.168Z,97397
2017-11-12T13:11:06.280Z,97395
2017-11-12T13:13:13.214Z,97401
2017-11-12T13:15:18.984Z,97408
2017-11-12T13:17:25.071Z,97407
2017-11-12T13:20:55.727Z,97404
2017-11-12T13:23:01.386Z,97405
2017-11-12T13:25:09.737Z,97410
2017-11-12T13:27:20.740Z,97406
2017-11-12T13:29:27.060Z,97416
2017-11-12T13:31:33.413Z,97415
2017-11-12T13:33:40.083Z,97421
2017-11-12T13:35:47.006Z,97420
2017-11-12T13:37:53.374Z,97414
2017-11-12T13:40:03.143Z,97406
2017-11-12T13:42:08.925Z,97416
2017-11-12T13:44:16.241Z,97422
2017-11-12T13:46:22.980Z,97422
2017-11-12T13:48:32.631Z,97419
2017-11-12T13:50:43.244Z,97411
2017-11-12T13:52:49.393Z,97410
2017-11-12T13:54:55.971Z,97410
2017-11-12T13:57:05.662Z,97403
2017-11-12T13:59:11.585Z,97394
2017-11-12T14:04:59.409Z,97392
2017-11-12T14:07:06.958Z,97389
2017-11-12T14:09:12.637Z,97391
2017-11-12T14:11:20.340Z,97388
2017-11-12T14:13:27.603Z,97391
2017-11-12T14:15:33.912Z,97392
2017-11-12T14:17:39.932Z,97389
2017-11-12T14:19:46.813Z,97391
2017-11-12T14:21:53.312Z,97393
2017-11-12T14:24:06.509Z,97392
2017-11-12T14:26:18.057Z,97396
2017-11-12T14:28:24.120Z,97395
2017-11-12T14:30:29.955Z,97387
2017-11-12T14:32:36.907Z,97379
2017-11-12T14:34:43.804Z,97378
2017-11-12T14:36:50.189Z,97378
2017-11-12T14:38:58.372Z,97381
2017-11-12T14:41:04.889Z,97375
2017-11-12T14:43:10.967Z,97374
2017-11-12T14:45:17.331Z,97383
2017-11-12T14:47:23.322Z,97389
2017-11-12T14:49:36.256Z,97395
2017-11-12T14:51:42.228Z,97403
2017-11-12T14:53:48.774Z,97402
2017-11-12T14:55:55.307Z,97408
2017-11-12T14:58:06.019Z,97409
2017-11-12T15:00:12.413Z,97410
2017-11-12T15:02:20.798Z,97405
2017-11-12T15:04:27.066Z,97402
2017-11-12T15:06:32.857Z,97388
2017-11-12T15:08:39.266Z,97379
2017-11-12T15:10:45.945Z,97369
2017-11-12T15:12:52.347Z,97363
2017-11-12T15:14:58.285Z,97359
2017-11-12T15:17:07.618Z,97350
2017-11-12T15:19:14.343Z,97355
2017-11-12T15:21:20.816Z,97362
2017-11-12T15:23:27.996Z,97360
2017-11-12T15:25:34.107Z,97344
2017-11-12T15:27:39.943Z,97329
2017-11-12T15:29:52.288Z,97322
2017-11-12T15:32:02.259Z,97319
2017-11-12T15:34:09.192Z,97305
2017-11-12T15:36:15.482Z,97285
2017-11-12T15:38:21.550Z,97262
2017-11-12T15:40:27.588Z,97259
2017-11-12T15:42:34.195Z,97279
2017-11-12T15:44:40.514Z,97300
2017-11-12T15:46:47.558Z,97296
2017-11-12T15:48:54.044Z,97298
2017-11-12T15:51:02.012Z,97307
2017-11-12T15:53:08.342Z,97310
2017-11-12T15:55:14.688Z,97323
2017-11-12T15:57:21.028Z,97335
2017-11-12T15:59:28.063Z,97326
2017-11-12T16:01:34.168Z,97303
2017-11-12T16:03:40.456Z,97275
2017-11-12T16:05:47.359Z,97281
2017-11-12T16:08:00.100Z,97308
2017-11-12T16:10:12.055Z,97338
2017-11-12T16:12:19.794Z,97353
2017-11-12T16:14:26.179Z,97361
2017-11-12T16:16:32.520Z,97371
2017-11-12T16:18:42.204Z,97374
2017-11-12T16:20:51.983Z,97370
2017-11-12T16:23:07.211Z,97375
2017-11-12T16:25:16.897Z,97376
2017-11-12T16:27:25.435Z,97390
2017-11-12T16:44:44.115Z,97379
2017-11-12T16:57:23.345Z,97389
2017-11-12T17:10:56.994Z,97372
2017-11-12T17:13:04.150Z,97385
2017-11-12T17:15:09.973Z,97390
2017-11-12T17:17:17.720Z,97402
2017-11-12T17:19:23.428Z,97402
2017-11-12T17:21:30.630Z,97405
2017-11-12T17:23:44.899Z,97410
2017-11-12T17:25:57.283Z,97411
2017-11-12T17:28:05.091Z,97405
2017-11-12T17:30:11.317Z,97400
2017-11-12T17:32:20.763Z,97394
2017-11-12T17:34:28.511Z,97409
2017-11-12T17:36:38.617Z,97424
2017-11-12T18:36:49.964Z,97502
2017-11-12T18:39:02.837Z,97527
2017-11-12T18:41:17.064Z,97540
2017-11-12T18:43:33.686Z,97542
2017-11-12T18:45:45.104Z,97539
2017-11-12T18:48:24.567Z,97553
2017-11-12T18:50:39.663Z,97560
2017-11-12T18:53:26.668Z,97564
2017-11-12T18:55:38.128Z,97571
2017-11-12T18:57:49.667Z,97571
2017-11-12T18:59:57.110Z,97567
2017-11-12T19:02:10.002Z,97575
2017-11-12T19:04:19.244Z,97574
2017-11-12T19:06:29.625Z,97581
2017-11-12T19:08:36.746Z,97585
2017-11-12T19:10:44.860Z,97582
2017-11-12T19:12:53.113Z,97595
2017-11-12T19:15:05.127Z,97595
2017-11-12T19:17:14.662Z,97602
2017-11-12T19:19:23.998Z,97609
2017-11-12T19:21:32.337Z,97616
2017-11-12T19:23:40.377Z,97622
2017-11-12T19:25:52.299Z,97634
2017-11-12T19:28:05.673Z,97642
2017-11-12T19:30:13.741Z,97636
2017-11-12T19:32:20.801Z,97646
2017-11-12T19:34:27.190Z,97654
2017-11-12T19:36:35.454Z,97648
2017-11-12T19:38:54.322Z,97658
2017-11-12T19:45:55.275Z,97675
2017-11-12T19:48:04.323Z,97685
2017-11-12T19:50:11.054Z,97682
2017-11-12T19:52:16.503Z,97693
2017-11-12T19:54:24.316Z,97691
2017-11-12T19:57:08.190Z,97694
2017-11-12T19:59:14.991Z,97702
2017-11-12T20:11:03.629Z,97716
2017-11-12T20:13:30.700Z,97718
2017-11-12T20:16:02.146Z,97731
2017-11-12T20:18:17.539Z,97732
2017-11-12T20:20:23.343Z,97733
2017-11-12T20:22:29.238Z,97746
2017-11-12T20:24:35.228Z,97742
2017-11-12T20:26:40.853Z,97740
2017-11-12T20:28:47.261Z,97746
2017-11-12T20:30:53.575Z,97748
2017-11-12T20:42:44.165Z,97760
2017-11-12T20:45:48.078Z,97768
2017-11-12T20:48:43.617Z,97773
2017-11-12T20:51:01.133Z,97778
2017-11-12T22:55:26.520Z,97941
2017-11-12T22:57:47.645Z,97948
2017-11-12T22:59:56.140Z,97946
2017-11-12T23:02:20.097Z,97950
2017-11-12T23:04:29.733Z,97956
2017-11-12T23:06:43.249Z,97959
2017-11-12T23:09:21.363Z,97965
2017-11-12T23:11:42.597Z,97969
2017-11-12T23:16:25.579Z,97979
2017-11-12T23:18:36.793Z,97974
2017-11-12T23:20:44.381Z,97973
2017-11-12T23:22:54.278Z,97974
2017-11-12T23:25:07.301Z,97981
2017-11-12T23:27:16.859Z,97990
2017-11-12T23:29:24.727Z,97989
2017-11-12T23:31:34.193Z,97989
2017-11-12T23:33:45.566Z,97996
2017-11-12T23:35:55.242Z,97986
2017-11-12T23:38:02.800Z,97986
2017-11-12T23:40:10.953Z,97988
2017-11-12T23:42:21.681Z,98004
2017-11-12T23:44:34.801Z,97990
2017-11-12T23:46:40.446Z,98009
2017-11-12T23:48:54.645Z,98009
2017-11-12T23:53:31.217Z,98006
2017-11-12T23:55:44.194Z,98015
2017-11-12T23:57:55.991Z,98004
